createdAt,value
2022-08-05T00:00:46.319Z,26.99
2022-08-05T00:01:49.242Z,27.00
2022-08-05T00:02:38.688Z,27.00
2022-08-05T00:03:38.667Z,27.00
2022-08-05T00:04:37.638Z,27.00
2022-08-05T00:06:05.196Z,27.00
2022-08-05T00:06:38.629Z,27.00
2022-08-05T00:08:00.027Z,27.00
2022-08-05T00:08:38.620Z,27.00
2022-08-05T00:09:37.589Z,27.00
2022-08-05T00:10:37.567Z,26.99
2022-08-05T00:11:48.262Z,27.00
2022-08-05T00:12:56.478Z,27.00
2022-08-05T00:13:40.058Z,26.99
2022-08-05T00:14:37.522Z,27.00
2022-08-05T00:15:55.326Z,27.00
2022-08-05T00:16:53.330Z,26.99
2022-08-05T00:17:38.498Z,26.99
2022-08-05T00:18:37.975Z,27.00
2022-08-05T00:19:45.843Z,27.00
2022-08-05T00:20:38.466Z,27.00
2022-08-05T00:21:37.469Z,27.00
2022-08-05T00:22:37.433Z,27.00
2022-08-05T00:23:46.085Z,27.00
2022-08-05T00:24:38.414Z,26.99
2022-08-05T00:25:45.615Z,26.99
2022-08-05T00:26:38.387Z,26.99
2022-08-05T00:27:37.570Z,26.99
2022-08-05T00:28:38.377Z,26.99
2022-08-05T00:29:38.115Z,26.99
2022-08-05T00:30:37.339Z,26.99
2022-08-05T00:31:53.458Z,27.00
2022-08-05T00:32:38.327Z,26.99
2022-08-05T00:34:56.410Z,26.99
2022-08-05T00:34:56.994Z,27.00
2022-08-05T00:35:38.290Z,27.00
2022-08-05T00:37:10.848Z,27.00
2022-08-05T00:37:53.035Z,26.99
2022-08-05T00:38:38.272Z,26.99
2022-08-05T00:39:41.500Z,26.97
2022-08-05T00:40:38.224Z,26.99
2022-08-05T00:41:46.799Z,27.00
2022-08-05T00:42:38.203Z,26.97
2022-08-05T00:43:46.697Z,26.99
2022-08-05T00:44:38.184Z,26.99
2022-08-05T00:45:43.146Z,26.99
2022-08-05T00:46:43.648Z,26.99
2022-08-05T00:47:56.783Z,26.97
2022-08-05T00:48:50.874Z,26.97
2022-08-05T00:49:44.361Z,26.99
2022-08-05T00:50:38.126Z,26.99
2022-08-05T00:51:51.774Z,26.97
2022-08-05T00:52:39.133Z,26.99
2022-08-05T00:53:45.421Z,26.97
2022-08-05T00:54:38.070Z,26.99
2022-08-05T00:55:43.532Z,26.97
2022-08-05T00:56:38.056Z,27.00
2022-08-05T00:57:55.427Z,26.99
2022-08-05T00:58:38.058Z,26.99
2022-08-05T00:59:44.631Z,26.99
2022-08-05T01:00:38.044Z,26.97
2022-08-05T01:01:42.605Z,26.99
2022-08-05T01:02:37.995Z,26.99
2022-08-05T01:03:36.992Z,26.97
2022-08-05T01:04:36.963Z,26.97
2022-08-05T01:05:37.962Z,26.99
2022-08-05T01:06:36.945Z,26.97
2022-08-05T01:07:36.934Z,26.99
2022-08-05T01:08:43.355Z,26.97
2022-08-05T01:09:37.913Z,26.97
2022-08-05T01:10:36.893Z,26.97
2022-08-05T01:11:37.624Z,26.99
2022-08-05T01:12:36.884Z,26.97
2022-08-05T01:13:58.241Z,26.99
2022-08-05T01:14:37.860Z,26.99
2022-08-05T01:15:36.907Z,26.97
2022-08-05T01:16:36.836Z,26.95
2022-08-05T01:17:40.269Z,26.97
2022-08-05T01:18:37.828Z,26.97
2022-08-05T01:20:02.088Z,26.97
2022-08-05T01:20:37.795Z,26.97
2022-08-05T01:21:38.197Z,26.95
2022-08-05T01:22:36.768Z,26.95
2022-08-05T01:23:36.780Z,26.97
2022-08-05T01:24:36.747Z,26.95
2022-08-05T01:25:41.102Z,26.97
2022-08-05T01:26:36.720Z,26.97
2022-08-05T01:27:36.720Z,26.95
2022-08-05T01:28:37.710Z,26.97
2022-08-05T01:29:36.692Z,26.95
2022-08-05T01:30:36.680Z,26.97
2022-08-05T01:31:42.757Z,26.97
2022-08-05T01:32:37.673Z,26.95
2022-08-05T01:33:36.677Z,26.95
2022-08-05T01:34:36.633Z,26.95
2022-08-05T01:35:51.111Z,26.97
2022-08-05T01:36:42.229Z,26.95
2022-08-05T01:37:37.616Z,26.97
2022-08-05T01:38:37.607Z,26.95
2022-08-05T01:39:46.017Z,26.95
2022-08-05T01:40:37.575Z,26.97
2022-08-05T01:41:36.555Z,26.95
2022-08-05T01:42:36.566Z,26.94
2022-08-05T01:43:36.557Z,26.95
2022-08-05T01:44:36.538Z,26.95
2022-08-05T01:45:43.053Z,26.94
2022-08-05T01:46:42.002Z,26.95
2022-08-05T01:47:39.418Z,26.95
2022-08-05T01:48:36.491Z,26.95
2022-08-05T01:50:00.175Z,26.95
2022-08-05T01:50:37.500Z,26.95
2022-08-05T01:51:36.459Z,26.92
2022-08-05T01:52:36.449Z,26.94
2022-08-05T01:53:55.139Z,26.94
2022-08-05T01:54:46.052Z,26.94
2022-08-05T01:55:37.430Z,26.94
2022-08-05T01:58:11.542Z,26.94
2022-08-05T01:58:29.566Z,26.94
2022-08-05T01:58:40.772Z,26.94
2022-08-05T01:59:37.395Z,26.94
2022-08-05T02:00:36.384Z,26.94
2022-08-05T02:01:40.035Z,26.94
2022-08-05T02:02:36.401Z,26.92
2022-08-05T02:03:37.327Z,26.94
2022-08-05T02:04:36.326Z,26.94
2022-08-05T02:05:36.675Z,26.94
2022-08-05T02:06:38.364Z,26.94
2022-08-05T02:07:36.377Z,26.94
2022-08-05T02:08:40.888Z,26.94
2022-08-05T02:09:37.266Z,26.94
2022-08-05T02:11:53.885Z,26.94
2022-08-05T02:12:53.937Z,26.94
2022-08-05T02:13:54.141Z,26.94
2022-08-05T02:14:53.884Z,26.94
2022-08-05T02:15:53.881Z,26.94
2022-08-05T02:16:53.818Z,26.92
2022-08-05T02:18:31.992Z,26.92
2022-08-05T02:18:54.799Z,26.91
2022-08-05T02:19:53.765Z,26.91
2022-08-05T02:20:53.749Z,26.91
2022-08-05T02:21:54.748Z,26.92
2022-08-05T02:22:53.721Z,26.94
2022-08-05T02:23:53.701Z,26.94
2022-08-05T02:24:53.709Z,26.92
2022-08-05T02:25:53.688Z,26.94
2022-08-05T02:26:54.023Z,26.92
2022-08-05T02:27:59.519Z,26.92
2022-08-05T02:28:54.652Z,26.92
2022-08-05T02:29:58.605Z,26.92
2022-08-05T02:30:56.561Z,26.92
2022-08-05T02:31:53.611Z,26.92
2022-08-05T02:32:53.610Z,26.92
2022-08-05T02:33:57.481Z,26.92
2022-08-05T02:34:54.617Z,26.92
2022-08-05T02:35:57.614Z,26.92
2022-08-05T02:36:54.573Z,26.92
2022-08-05T02:37:54.058Z,26.92
2022-08-05T02:38:54.008Z,26.91
2022-08-05T02:39:53.676Z,26.92
2022-08-05T02:40:53.534Z,26.92
2022-08-05T02:42:00.781Z,26.91
2022-08-05T02:42:54.507Z,26.91
2022-08-05T02:44:05.932Z,26.91
2022-08-05T02:44:54.509Z,26.92
2022-08-05T02:45:54.067Z,26.92
2022-08-05T02:46:59.796Z,26.92
2022-08-05T02:48:06.594Z,26.92
2022-08-05T02:48:54.449Z,26.91
2022-08-05T02:49:53.465Z,26.92
2022-08-05T02:50:53.440Z,26.92
2022-08-05T02:52:03.853Z,26.92
2022-08-05T02:52:54.457Z,26.92
2022-08-05T02:53:54.718Z,26.92
2022-08-05T02:54:53.391Z,26.91
2022-08-05T02:55:59.596Z,26.92
2022-08-05T02:56:54.374Z,26.91
2022-08-05T02:58:10.839Z,26.92
2022-08-05T02:58:54.341Z,26.91
2022-08-05T02:59:53.343Z,26.92
2022-08-05T03:00:53.323Z,26.91
2022-08-05T03:01:53.358Z,26.92
2022-08-05T03:02:53.303Z,26.92
2022-08-05T03:04:03.012Z,26.91
2022-08-05T03:04:54.292Z,26.91
2022-08-05T03:06:54.425Z,26.91
2022-08-05T03:06:59.592Z,26.92
2022-08-05T03:08:06.661Z,26.91
2022-08-05T03:08:54.226Z,26.92
2022-08-05T03:09:53.236Z,26.91
2022-08-05T03:11:53.349Z,26.89
2022-08-05T03:11:58.052Z,26.91
2022-08-05T03:12:53.188Z,26.91
2022-08-05T03:14:02.879Z,26.91
2022-08-05T03:14:54.200Z,26.91
2022-08-05T03:15:53.245Z,26.89
2022-08-05T03:16:53.532Z,26.91
2022-08-05T03:17:54.200Z,26.91
2022-08-05T03:18:53.130Z,26.91
2022-08-05T03:19:53.118Z,26.89
2022-08-05T03:20:53.160Z,26.87
2022-08-05T03:21:53.090Z,26.84
2022-08-05T03:22:53.091Z,26.77
2022-08-05T03:23:53.892Z,26.72
2022-08-05T03:24:53.112Z,26.66
2022-08-05T03:26:30.368Z,26.58
2022-08-05T03:26:54.041Z,26.54
2022-08-05T03:28:00.212Z,26.48
2022-08-05T03:28:54.033Z,26.45
2022-08-05T03:30:07.724Z,26.40
2022-08-05T03:30:54.016Z,26.39
2022-08-05T03:31:56.720Z,26.37
2022-08-05T03:32:54.003Z,26.36
2022-08-05T03:33:53.281Z,26.35
2022-08-05T03:34:52.986Z,26.35
2022-08-05T03:35:52.956Z,26.32
2022-08-05T03:36:52.947Z,26.32
2022-08-05T03:37:53.537Z,26.30
2022-08-05T03:38:53.441Z,26.28
2022-08-05T03:39:58.756Z,26.26
2022-08-05T03:40:53.951Z,26.23
2022-08-05T03:41:52.900Z,26.25
2022-08-05T03:42:53.127Z,26.21
2022-08-05T03:44:10.042Z,26.17
2022-08-05T03:44:53.909Z,26.13
2022-08-05T03:45:55.187Z,26.12
2022-08-05T03:46:53.819Z,26.10
2022-08-05T03:47:57.015Z,26.07
2022-08-05T03:48:53.833Z,26.05
2022-08-05T03:49:52.792Z,26.01
2022-08-05T03:50:52.802Z,25.98
2022-08-05T03:52:49.414Z,25.97
2022-08-05T03:55:34.740Z,25.95
2022-08-05T03:55:50.442Z,25.95
2022-08-05T03:55:51.363Z,25.95
2022-08-05T03:56:10.023Z,25.94
2022-08-05T03:56:53.713Z,25.94
2022-08-05T03:57:52.734Z,25.94
2022-08-05T03:58:52.735Z,25.95
2022-08-05T03:59:55.046Z,25.95
2022-08-05T04:00:52.704Z,25.97
2022-08-05T04:01:52.761Z,25.98
2022-08-05T04:02:58.458Z,25.98
2022-08-05T04:04:09.795Z,25.99
2022-08-05T04:04:53.677Z,25.99
2022-08-05T04:05:52.634Z,26.01
2022-08-05T04:06:52.619Z,26.05
2022-08-05T04:07:57.990Z,26.05
2022-08-05T04:08:53.600Z,26.06
2022-08-05T04:09:53.422Z,26.06
2022-08-05T04:10:52.630Z,26.06
2022-08-05T04:11:52.839Z,26.07
2022-08-05T04:12:52.560Z,26.07
2022-08-05T04:13:53.586Z,26.06
2022-08-05T04:14:52.542Z,26.06
2022-08-05T04:16:03.026Z,26.05
2022-08-05T04:16:53.520Z,26.05
2022-08-05T04:17:57.190Z,26.05
2022-08-05T04:18:54.190Z,26.06
2022-08-05T04:19:54.597Z,26.06
2022-08-05T04:20:53.506Z,26.07
2022-08-05T04:22:08.281Z,26.07
2022-08-05T04:22:53.444Z,26.07
2022-08-05T04:24:04.884Z,26.10
2022-08-05T04:24:53.457Z,26.09
2022-08-05T04:26:00.485Z,26.09
2022-08-05T04:26:53.410Z,26.10
2022-08-05T04:27:58.225Z,26.12
2022-08-05T04:28:53.446Z,26.13
2022-08-05T04:29:52.379Z,26.13
2022-08-05T04:30:53.327Z,26.13
2022-08-05T04:31:52.337Z,26.12
2022-08-05T04:32:53.110Z,26.12
2022-08-05T04:34:17.510Z,26.13
2022-08-05T04:34:53.354Z,26.12
2022-08-05T04:36:10.962Z,26.13
2022-08-05T04:36:53.300Z,26.13
2022-08-05T04:38:02.783Z,26.13
2022-08-05T04:38:53.399Z,26.15
2022-08-05T04:39:52.729Z,26.15
2022-08-05T04:40:52.262Z,26.15
2022-08-05T04:41:52.272Z,26.15
2022-08-05T04:42:52.349Z,26.13
2022-08-05T04:43:53.419Z,26.13
2022-08-05T04:44:52.234Z,26.13
2022-08-05T04:45:55.635Z,26.17
2022-08-05T04:46:52.785Z,26.15
2022-08-05T04:47:52.203Z,26.17
2022-08-05T04:48:52.175Z,26.17
2022-08-05T04:50:03.059Z,26.15
2022-08-05T04:51:01.885Z,26.18
2022-08-05T04:52:00.210Z,26.17
2022-08-05T04:52:53.138Z,26.18
2022-08-05T04:53:52.119Z,26.17
2022-08-05T04:54:52.127Z,26.20
2022-08-05T04:56:14.393Z,26.20
2022-08-05T04:56:56.302Z,26.20
2022-08-05T04:57:54.091Z,26.20
2022-08-05T04:58:52.070Z,26.21
2022-08-05T04:59:52.048Z,26.20
2022-08-05T05:00:52.105Z,26.20
2022-08-05T05:02:06.874Z,26.21
2022-08-05T05:02:53.144Z,26.21
2022-08-05T05:03:52.023Z,26.23
2022-08-05T05:04:51.990Z,26.23
2022-08-05T05:06:36.179Z,26.25
2022-08-05T05:06:57.556Z,26.26
2022-08-05T05:07:53.075Z,26.25
2022-08-05T05:08:51.953Z,26.25
2022-08-05T05:09:51.953Z,26.26
2022-08-05T05:10:56.289Z,26.25
2022-08-05T05:11:54.370Z,26.26
2022-08-05T05:12:51.923Z,26.26
2022-08-05T05:13:51.893Z,26.26
2022-08-05T05:14:51.894Z,26.28
2022-08-05T05:15:56.119Z,26.29
2022-08-05T05:16:52.912Z,26.29
2022-08-05T05:17:56.712Z,26.30
2022-08-05T05:19:17.678Z,26.30
2022-08-05T05:19:52.857Z,26.32
2022-08-05T05:20:51.847Z,26.32
2022-08-05T05:21:51.819Z,26.33
2022-08-05T05:22:51.819Z,26.32
2022-08-05T05:24:02.252Z,26.30
2022-08-05T05:24:57.263Z,26.30
2022-08-05T05:25:52.807Z,26.32
2022-08-05T05:26:51.958Z,26.33
2022-08-05T05:27:55.715Z,26.32
2022-08-05T05:28:51.773Z,26.32
2022-08-05T05:30:04.923Z,26.32
2022-08-05T05:30:52.740Z,26.33
2022-08-05T05:31:51.723Z,26.32
2022-08-05T05:32:51.728Z,26.30
2022-08-05T05:34:02.224Z,26.30
2022-08-05T05:34:52.710Z,26.30
2022-08-05T05:35:51.813Z,26.28
2022-08-05T05:36:51.842Z,26.26
2022-08-05T05:37:59.794Z,26.26
2022-08-05T05:38:52.776Z,26.26
2022-08-05T05:39:51.730Z,26.26
2022-08-05T05:40:51.653Z,26.25
2022-08-05T05:41:54.305Z,26.25
2022-08-05T05:42:51.614Z,26.25
2022-08-05T05:43:58.452Z,26.25
2022-08-05T05:44:52.568Z,26.25
2022-08-05T05:45:52.627Z,26.25
2022-08-05T05:46:51.547Z,26.23
2022-08-05T05:48:06.926Z,26.25
2022-08-05T05:48:52.527Z,26.23
2022-08-05T05:49:52.648Z,26.25
2022-08-05T05:50:52.548Z,26.25
2022-08-05T05:51:51.510Z,26.23
2022-08-05T05:52:51.480Z,26.25
2022-08-05T05:53:57.657Z,26.23
2022-08-05T05:54:52.469Z,26.25
2022-08-05T05:56:00.392Z,26.25
2022-08-05T05:56:52.442Z,26.23
2022-08-05T05:57:52.101Z,26.23
2022-08-05T05:58:51.422Z,26.21
2022-08-05T05:59:51.402Z,26.23
2022-08-05T06:00:51.413Z,26.23
2022-08-05T06:01:57.270Z,26.21
2022-08-05T06:02:52.376Z,26.21
2022-08-05T06:04:00.400Z,26.21
2022-08-05T06:04:52.395Z,26.23
2022-08-05T06:05:54.039Z,26.23
2022-08-05T06:06:51.323Z,26.21
2022-08-05T06:08:01.254Z,26.21
2022-08-05T06:08:52.296Z,26.21
2022-08-05T06:10:01.412Z,26.21
2022-08-05T06:10:52.786Z,26.20
2022-08-05T06:12:02.057Z,26.21
2022-08-05T06:12:52.260Z,26.21
2022-08-05T06:13:55.433Z,26.21
2022-08-05T06:14:51.858Z,26.21
2022-08-05T06:16:29.146Z,26.21
2022-08-05T06:16:52.220Z,26.23
2022-08-05T06:17:53.010Z,26.21
2022-08-05T06:18:53.521Z,26.21
2022-08-05T06:19:57.000Z,26.21
2022-08-05T06:20:54.230Z,26.21
2022-08-05T06:21:51.174Z,26.21
2022-08-05T06:22:51.153Z,26.21
2022-08-05T06:23:51.149Z,26.21
2022-08-05T06:24:51.124Z,26.21
2022-08-05T06:26:12.466Z,26.21
2022-08-05T06:26:53.168Z,26.21
2022-08-05T06:28:12.821Z,26.21
2022-08-05T06:28:52.109Z,26.21
2022-08-05T06:30:02.741Z,26.21
2022-08-05T06:30:52.090Z,26.21
2022-08-05T06:31:51.104Z,26.21
2022-08-05T06:32:51.045Z,26.20
2022-08-05T06:34:07.983Z,26.21
2022-08-05T06:34:53.429Z,26.21
2022-08-05T06:36:03.568Z,26.21
2022-08-05T06:36:56.938Z,26.23
2022-08-05T06:37:57.686Z,26.21
2022-08-05T06:38:51.981Z,26.21
2022-08-05T06:39:50.969Z,26.23
2022-08-05T06:40:50.968Z,26.21
2022-08-05T06:41:50.949Z,26.23
2022-08-05T06:42:51.721Z,26.23
2022-08-05T06:43:58.580Z,26.23
2022-08-05T06:44:51.910Z,26.23
2022-08-05T06:46:04.163Z,26.21
2022-08-05T06:46:51.901Z,26.23
2022-08-05T06:48:36.959Z,26.23
2022-08-05T06:48:56.404Z,26.25
2022-08-05T06:50:01.185Z,26.25
2022-08-05T06:50:51.910Z,26.26
2022-08-05T06:51:50.833Z,26.26
2022-08-05T06:52:58.557Z,26.25
2022-08-05T06:53:53.670Z,26.25
2022-08-05T06:54:52.021Z,26.26
2022-08-05T06:55:50.815Z,26.25
2022-08-05T06:56:54.802Z,26.26
2022-08-05T06:58:03.132Z,26.26
2022-08-05T06:58:51.762Z,26.26
2022-08-05T06:59:55.070Z,26.25
2022-08-05T07:00:51.796Z,26.26
2022-08-05T07:01:52.798Z,26.26
2022-08-05T07:02:53.900Z,26.28
2022-08-05T07:03:50.715Z,26.29
2022-08-05T07:04:50.728Z,26.29
2022-08-05T07:05:50.721Z,26.30
2022-08-05T07:06:50.678Z,26.30
2022-08-05T07:07:50.670Z,26.30
2022-08-05T07:08:53.187Z,26.32
2022-08-05T07:09:58.133Z,26.32
2022-08-05T07:10:53.191Z,26.32
2022-08-05T07:11:51.601Z,26.32
2022-08-05T07:12:50.610Z,26.33
2022-08-05T07:13:58.792Z,26.33
2022-08-05T07:14:54.044Z,26.33
2022-08-05T07:16:00.749Z,26.35
2022-08-05T07:17:59.044Z,26.35
2022-08-05T07:17:59.528Z,26.35
2022-08-05T07:18:51.551Z,26.36
2022-08-05T07:20:51.524Z,26.37
2022-08-05T07:22:00.691Z,26.37
2022-08-05T07:22:51.782Z,26.39
2022-08-05T07:23:52.335Z,26.40
2022-08-05T07:24:52.691Z,26.40
2022-08-05T07:25:55.973Z,26.40
2022-08-05T07:26:51.478Z,26.40
2022-08-05T07:28:00.591Z,26.43
2022-08-05T07:28:51.444Z,26.43
2022-08-05T07:30:24.084Z,26.44
2022-08-05T07:30:52.858Z,26.44
2022-08-05T07:31:54.490Z,26.45
2022-08-05T07:32:53.327Z,26.45
2022-08-05T07:33:50.388Z,26.44
2022-08-05T07:34:50.416Z,26.45
2022-08-05T07:36:03.642Z,26.47
2022-08-05T07:36:51.414Z,26.45
2022-08-05T07:37:51.121Z,26.47
2022-08-05T07:38:54.659Z,26.47
2022-08-05T07:40:26.212Z,26.48
2022-08-05T07:40:55.485Z,26.50
2022-08-05T07:42:13.303Z,26.48
2022-08-05T07:42:51.301Z,26.48
2022-08-05T07:43:50.293Z,26.48
2022-08-05T07:44:50.284Z,26.48
2022-08-05T07:45:57.469Z,26.50
2022-08-05T07:46:51.255Z,26.50
2022-08-05T07:47:50.261Z,26.50
2022-08-05T07:49:03.875Z,26.50
2022-08-05T07:49:54.327Z,26.50
2022-08-05T07:50:50.236Z,26.51
2022-08-05T07:51:54.705Z,26.51
2022-08-05T07:52:50.217Z,26.51
2022-08-05T07:53:51.186Z,26.52
2022-08-05T07:54:50.386Z,26.52
2022-08-05T07:56:05.305Z,26.51
2022-08-05T07:57:14.584Z,26.52
2022-08-05T07:58:02.142Z,26.51
2022-08-05T07:58:58.685Z,26.52
2022-08-05T07:59:51.158Z,26.52
2022-08-05T08:00:50.151Z,26.52
2022-08-05T08:01:52.404Z,26.52
2022-08-05T08:03:14.510Z,26.54
2022-08-05T08:03:51.352Z,26.54
2022-08-05T08:04:50.090Z,26.52
2022-08-05T08:05:50.073Z,26.55
2022-08-05T08:06:50.043Z,26.55
2022-08-05T08:07:58.930Z,26.54
2022-08-05T08:08:51.012Z,26.55
2022-08-05T08:09:50.032Z,26.57
2022-08-05T08:10:50.001Z,26.55
2022-08-05T08:11:58.947Z,26.55
2022-08-05T08:12:50.968Z,26.57
2022-08-05T08:14:01.162Z,26.57
2022-08-05T08:14:51.034Z,26.57
2022-08-05T08:16:35.714Z,26.57
2022-08-05T08:16:52.492Z,26.57
2022-08-05T08:17:52.586Z,26.57
2022-08-05T08:18:50.622Z,26.57
2022-08-05T08:20:43.729Z,26.57
2022-08-05T08:21:03.113Z,26.58
2022-08-05T08:21:50.879Z,26.57
2022-08-05T08:22:49.859Z,26.57
2022-08-05T08:24:02.764Z,26.58
2022-08-05T08:24:51.382Z,26.57
2022-08-05T08:26:00.928Z,26.60
2022-08-05T08:26:50.842Z,26.58
2022-08-05T08:27:51.441Z,26.60
2022-08-05T08:28:58.914Z,26.60
2022-08-05T08:30:05.854Z,26.58
2022-08-05T08:30:50.870Z,26.58
2022-08-05T08:31:49.810Z,26.60
2022-08-05T08:32:49.844Z,26.60
2022-08-05T08:33:51.763Z,26.60
2022-08-05T08:34:50.504Z,26.60
2022-08-05T08:35:53.028Z,26.60
2022-08-05T08:36:55.809Z,26.60
2022-08-05T08:37:53.510Z,26.60
2022-08-05T08:38:53.113Z,26.58
2022-08-05T08:39:49.933Z,26.62
2022-08-05T08:40:51.490Z,26.62
2022-08-05T08:41:52.215Z,26.60
2022-08-05T08:42:52.793Z,26.62
2022-08-05T08:45:20.945Z,26.60
2022-08-05T08:45:20.946Z,26.62
2022-08-05T08:45:50.628Z,26.62
2022-08-05T08:46:49.627Z,26.62
2022-08-05T08:48:07.138Z,26.62
2022-08-05T08:49:04.201Z,26.62
2022-08-05T08:50:14.636Z,26.62
2022-08-05T08:51:03.438Z,26.62
2022-08-05T08:52:05.933Z,26.62
2022-08-05T08:52:51.644Z,26.63
2022-08-05T08:53:49.579Z,26.62
2022-08-05T08:54:49.594Z,26.62
2022-08-05T08:56:04.215Z,26.63
2022-08-05T08:56:50.530Z,26.63
2022-08-05T08:57:57.930Z,26.65
2022-08-05T08:58:50.646Z,26.63
2022-08-05T08:59:49.487Z,26.65
2022-08-05T09:00:49.578Z,26.65
2022-08-05T09:01:57.413Z,26.65
2022-08-05T09:02:50.572Z,26.65
2022-08-05T09:03:55.194Z,26.65
2022-08-05T09:05:16.297Z,26.66
2022-08-05T09:06:08.689Z,26.65
2022-08-05T09:06:50.405Z,26.63
2022-08-05T09:07:56.762Z,26.66
2022-08-05T09:08:50.409Z,26.65
2022-08-05T09:09:49.395Z,26.66
2022-08-05T09:10:49.377Z,26.66
2022-08-05T09:11:51.672Z,26.66
2022-08-05T09:12:51.090Z,26.66
2022-08-05T09:14:10.203Z,26.66
2022-08-05T09:14:58.065Z,26.67
2022-08-05T09:15:50.422Z,26.66
2022-08-05T09:16:50.069Z,26.67
2022-08-05T09:17:49.934Z,26.67
2022-08-05T09:18:49.280Z,26.72
2022-08-05T09:20:01.944Z,26.69
2022-08-05T09:20:50.323Z,26.67
2022-08-05T09:22:18.521Z,26.66
2022-08-05T09:22:51.865Z,26.69
2022-08-05T09:23:49.220Z,26.67
2022-08-05T09:24:49.242Z,26.69
2022-08-05T09:26:01.030Z,26.69
2022-08-05T09:26:51.681Z,26.67
2022-08-05T09:28:04.067Z,26.70
2022-08-05T09:28:50.223Z,26.69
2022-08-05T09:29:49.163Z,26.67
2022-08-05T09:30:49.368Z,26.70
2022-08-05T09:32:46.012Z,26.70
2022-08-05T09:32:52.007Z,26.70
2022-08-05T09:33:49.117Z,26.69
2022-08-05T09:34:49.146Z,26.69
2022-08-05T09:35:49.098Z,26.70
2022-08-05T09:36:54.805Z,26.69
2022-08-05T09:38:12.937Z,26.70
2022-08-05T09:38:50.216Z,26.70
2022-08-05T09:39:52.298Z,26.70
2022-08-05T09:40:52.379Z,26.70
2022-08-05T09:41:52.733Z,26.70
2022-08-05T09:42:50.720Z,26.72
2022-08-05T09:43:49.403Z,26.72
2022-08-05T09:44:50.392Z,26.72
2022-08-05T09:46:07.736Z,26.72
2022-08-05T09:46:51.607Z,26.72
2022-08-05T09:47:56.189Z,26.73
2022-08-05T09:49:06.552Z,26.73
2022-08-05T09:50:01.073Z,26.73
2022-08-05T09:50:49.931Z,26.72
2022-08-05T09:51:49.988Z,26.73
2022-08-05T09:52:52.921Z,26.73
2022-08-05T09:53:54.781Z,26.73
2022-08-05T09:54:49.901Z,26.73
2022-08-05T09:55:56.620Z,26.73
2022-08-05T09:56:52.379Z,26.73
2022-08-05T09:57:48.857Z,26.75
2022-08-05T09:58:50.246Z,26.73
2022-08-05T09:59:48.839Z,26.75
2022-08-05T10:00:48.826Z,26.75
2022-08-05T10:01:48.807Z,26.73
2022-08-05T10:02:50.125Z,26.75
2022-08-05T10:03:58.576Z,26.75
2022-08-05T10:04:49.817Z,26.75
2022-08-05T10:05:48.777Z,26.76
2022-08-05T10:06:54.918Z,26.76
2022-08-05T10:08:10.873Z,26.77
2022-08-05T10:08:53.990Z,26.76
2022-08-05T10:09:49.760Z,26.77
2022-08-05T10:10:50.261Z,26.76
2022-08-05T10:11:48.759Z,26.77
2022-08-05T10:12:49.175Z,26.76
2022-08-05T10:13:54.799Z,26.76
2022-08-05T10:14:48.862Z,26.76
2022-08-05T10:15:48.681Z,26.77
2022-08-05T10:16:52.894Z,26.77
2022-08-05T10:17:56.673Z,26.77
2022-08-05T10:18:49.661Z,26.77
2022-08-05T10:20:03.848Z,26.77
2022-08-05T10:20:49.709Z,26.77
2022-08-05T10:21:48.624Z,26.80
2022-08-05T10:22:50.921Z,26.77
2022-08-05T10:24:00.132Z,26.77
2022-08-05T10:24:49.605Z,26.77
2022-08-05T10:25:48.558Z,26.80
2022-08-05T10:26:51.327Z,26.80
2022-08-05T10:28:13.192Z,26.80
2022-08-05T10:28:49.573Z,26.80
2022-08-05T10:30:06.676Z,26.80
2022-08-05T10:32:51.788Z,26.81
2022-08-05T10:32:53.125Z,26.80
2022-08-05T10:32:56.378Z,26.80
2022-08-05T10:33:54.027Z,26.80
2022-08-05T10:34:49.679Z,26.81
2022-08-05T10:35:52.584Z,26.81
2022-08-05T10:36:49.511Z,26.82
2022-08-05T10:37:48.423Z,26.82
2022-08-05T10:38:48.710Z,26.81
2022-08-05T10:39:58.948Z,26.82
2022-08-05T10:40:49.446Z,26.81
2022-08-05T10:41:48.391Z,26.82
2022-08-05T10:42:49.157Z,26.82
2022-08-05T10:43:48.597Z,26.81
2022-08-05T10:44:48.652Z,26.82
2022-08-05T10:45:48.373Z,26.82
2022-08-05T10:46:50.602Z,26.82
2022-08-05T10:48:30.115Z,26.82
2022-08-05T10:48:56.518Z,26.82
2022-08-05T10:49:49.295Z,26.84
2022-08-05T10:50:49.287Z,26.82
2022-08-05T10:51:57.549Z,26.84
2022-08-05T10:52:49.739Z,26.82
2022-08-05T10:53:48.296Z,26.85
2022-08-05T10:54:56.197Z,26.84
2022-08-05T10:56:05.206Z,26.84
2022-08-05T10:56:49.556Z,26.84
2022-08-05T10:57:51.233Z,26.85
2022-08-05T10:58:48.240Z,26.85
2022-08-05T11:00:02.841Z,26.84
2022-08-05T11:00:54.932Z,26.85
2022-08-05T11:01:55.158Z,26.85
2022-08-05T11:02:50.460Z,26.85
2022-08-05T11:03:48.241Z,26.85
2022-08-05T11:04:48.142Z,26.87
2022-08-05T11:05:48.231Z,26.85
2022-08-05T11:06:49.136Z,26.85
2022-08-05T11:08:02.831Z,26.85
2022-08-05T11:08:49.351Z,26.85
2022-08-05T11:09:48.852Z,26.87
2022-08-05T11:10:50.467Z,26.87
2022-08-05T11:11:52.650Z,26.87
2022-08-05T11:12:54.336Z,26.87
2022-08-05T11:13:57.572Z,26.85
2022-08-05T11:15:11.629Z,26.87
2022-08-05T11:15:59.032Z,26.87
2022-08-05T11:16:57.907Z,26.87
2022-08-05T11:18:00.385Z,26.88
2022-08-05T11:18:49.016Z,26.88
2022-08-05T11:20:10.501Z,26.89
2022-08-05T11:20:49.072Z,26.88
2022-08-05T11:21:49.511Z,26.88
2022-08-05T11:22:49.705Z,26.88
2022-08-05T11:24:02.691Z,26.88
2022-08-05T11:24:50.549Z,26.88
2022-08-05T11:26:05.069Z,26.89
2022-08-05T11:26:49.387Z,26.89
2022-08-05T11:27:51.894Z,26.88
2022-08-05T11:28:48.892Z,26.88
2022-08-05T11:29:47.872Z,26.89
2022-08-05T11:30:48.620Z,26.88
2022-08-05T11:31:57.973Z,26.89
2022-08-05T11:32:48.850Z,26.89
2022-08-05T11:33:48.336Z,26.89
2022-08-05T11:34:54.010Z,26.91
2022-08-05T11:36:07.771Z,26.88
2022-08-05T11:36:52.746Z,26.91
2022-08-05T11:38:28.116Z,26.89
2022-08-05T11:38:51.900Z,26.89
2022-08-05T11:39:47.993Z,26.89
2022-08-05T11:40:47.765Z,26.92
2022-08-05T11:42:01.003Z,26.91
2022-08-05T11:42:48.780Z,26.89
2022-08-05T11:44:06.365Z,26.91
2022-08-05T11:44:54.125Z,26.92
2022-08-05T11:46:15.611Z,26.92
2022-08-05T11:47:09.467Z,26.91
2022-08-05T11:47:50.342Z,26.92
2022-08-05T11:48:48.727Z,26.92
2022-08-05T11:49:50.999Z,26.92
2022-08-05T11:50:47.656Z,26.92
2022-08-05T11:51:51.871Z,26.92
2022-08-05T11:52:49.633Z,26.94
2022-08-05T11:53:48.634Z,26.92
2022-08-05T11:54:48.482Z,26.94
2022-08-05T11:55:48.579Z,26.94
2022-08-05T11:56:50.347Z,26.94
2022-08-05T11:58:09.677Z,26.92
2022-08-05T11:58:53.162Z,26.94
2022-08-05T11:59:49.717Z,26.94
2022-08-05T12:00:47.524Z,26.92
2022-08-05T12:01:48.556Z,26.94
2022-08-05T12:02:47.566Z,26.95
2022-08-05T12:03:55.485Z,26.94
2022-08-05T12:04:59.147Z,26.94
2022-08-05T12:05:48.467Z,26.95
2022-08-05T12:06:48.684Z,26.95
2022-08-05T12:08:07.421Z,26.95
2022-08-05T12:08:50.878Z,26.95
2022-08-05T12:09:53.387Z,26.94
2022-08-05T12:10:48.703Z,26.95
2022-08-05T12:11:47.557Z,26.94
2022-08-05T12:12:59.495Z,26.94
2022-08-05T12:13:49.966Z,26.95
2022-08-05T12:14:47.452Z,26.95
2022-08-05T12:15:49.890Z,26.95
2022-08-05T12:16:47.429Z,26.94
2022-08-05T12:18:03.342Z,26.95
2022-08-05T12:18:49.535Z,26.97
2022-08-05T12:20:25.628Z,26.95
2022-08-05T12:20:49.070Z,26.95
2022-08-05T12:21:47.329Z,26.97
2022-08-05T12:22:47.334Z,26.94
2022-08-05T12:23:47.462Z,26.97
2022-08-05T12:24:49.625Z,26.95
2022-08-05T12:25:47.251Z,26.97
2022-08-05T12:26:47.231Z,26.97
2022-08-05T12:27:52.993Z,26.99
2022-08-05T12:28:48.243Z,26.97
2022-08-05T12:29:53.918Z,26.97
2022-08-05T12:30:48.951Z,26.99
2022-08-05T12:31:53.239Z,26.97
2022-08-05T12:32:50.375Z,26.99
2022-08-05T12:33:47.224Z,26.99
2022-08-05T12:34:47.158Z,26.99
2022-08-05T12:35:47.156Z,26.99
2022-08-05T12:36:47.140Z,26.97
2022-08-05T12:37:47.167Z,26.99
2022-08-05T12:38:47.098Z,26.99
2022-08-05T12:39:51.119Z,26.99
2022-08-05T12:40:47.109Z,27.00
2022-08-05T12:41:47.083Z,27.00
2022-08-05T12:42:47.108Z,27.00
2022-08-05T12:43:47.037Z,27.00
2022-08-05T12:44:47.618Z,27.00
2022-08-05T12:45:49.596Z,27.00
2022-08-05T12:46:47.014Z,27.02
2022-08-05T12:48:01.608Z,27.00
2022-08-05T12:48:48.011Z,27.00
2022-08-05T12:50:04.165Z,27.02
2022-08-05T12:50:48.013Z,27.02
2022-08-05T12:52:13.513Z,27.02
2022-08-05T12:52:47.963Z,27.02
2022-08-05T12:53:47.420Z,27.02
2022-08-05T12:54:47.984Z,27.02